Forside
METAR-TAF:

METAR-TAF

Lufthavne :

Port Moresby, Papua Ny Guinea

Breddekreds: 09-26S, længdekreds: 147-13E, højde: 38 m

Aktuelle vejr

Denne rapport blev lavet for 30 minutter siden, kl. 09:00 UTC
Vind 16 kt fra sydøst
Temperatur 26°C
Fugtighed 79%
Tryk 1011 hPa
Sigt 10 km eller mere

METAR: AYPY 230900Z 14016KT 9999 NSC 26/22 Q1011

Tid: 19:30 (09:30 UTC)

Vejrudsigter

Denne rapport blev lavet for 6 timer og 28 minutter siden, kl. 03:02 UTC
Foreløbig gælder fra 23 på 06 UTC til 24 på 06 UTC
Vind 10 kt fra sydsydøst
Sigt 10 km eller mere
Spredte skyer i en højde af 2500 ft
Fra 23 på 0900 UTC
Vind 5 kt fra sydsydøst
Sigt 10 km eller mere
Spredte skyer i en højde af 4000 ft

TAF: AYPY 230302Z 2306/2406 16010KT 9999 SCT025 FM230900 15005KT 9999 SCT040

Vejrobservationer og prognoser fra mere end 4000 lufthavne (METAR og TAF).

De gule og røde prikker repræsenterer de meteorologiske stationer.

Flyt musen over at se navnet på stationen.

Så klik over at se vejr observationer og prognoser.

At skifte det kort: Klik på de grønne knapper med et sort kors for at zoome ind; på den grønne knap med en bindestreg for at zoome ud; eller på de grønne pile for tilstødende kort.


METAR-TAF: